Terminal Aerodrome Forecast
Issued by NWS Milwaukee/Sullivan, WI

Home | Current Version | Previous Version | Text Only | Print | Product List | Glossary On
Versions: 1 2 3 4 5 6 7 8 9 10 11 12 13 14 15 16 17 18 19 20 21 22 23 24 25 26 27 28 29 30 31 32 33 34 35 36 37 38 39 40 41 42 43 44 45 46 47 48 49 50
240
FTUS43 KMKX 292323
TAFMKE
TAF
KMKE 292323Z 3000/3106 02013G20KT P6SM -RA FEW002 SCT040 OVC070
     FM300400 07014G22KT P6SM -RA SCT025 OVC040
     FM300800 08017G26KT 5SM RA BR OVC030
     FM301100 08018G26KT 3SM RA BR OVC010
     FM301400 08019G30KT 1SM RA BR OVC008
     FM301600 07020G32KT 1SM RA BR OVC004
     FM310000 05014G23KT 1 1/2SM -RA OVC003=

USA.gov is the U.S. government's official web portal to all federal, state and local government web resources and services.